Terminal Aerodrome Forecast
Issued by NWS Twin Cities, MN

Home | Current Version | Previous Version | Graphics & Text | Print | Product List | Glossary On
Versions: 1 2 3 4 5 6 7 8 9 10 11 12 13 14 15 16 17 18
874
FTUS43 KMPX 180532
TAFSTC
TAF
KSTC 180532Z 1806/1906 00000KT P6SM VCSH OVC110
     FM180800 13004KT P6SM BKN110
     FM181600 16011G19KT P6SM VCSH BKN060 OVC100
     FM181900 16011G17KT P6SM SCT030 OVC050
     FM190100 14007KT P6SM OVC020=

USA.gov is the U.S. government's official web portal to all federal, state and local government web resources and services.